createdAt,value
2017-12-26T00:02:36.412Z,20.57
2017-12-26T00:17:33.840Z,25.87
2017-12-26T00:32:35.044Z,27.10
2017-12-26T00:47:36.483Z,31.80
2017-12-26T01:02:34.645Z,33.13
2017-12-26T01:17:33.785Z,34.23
2017-12-26T01:32:34.780Z,27.23
2017-12-26T01:47:34.697Z,25.20
2017-12-26T02:02:34.362Z,26.03
2017-12-26T02:17:33.996Z,26.57
2017-12-26T02:32:33.504Z,24.00
2017-12-26T02:47:33.851Z,20.90
2017-12-26T03:02:34.556Z,21.50
2017-12-26T03:17:37.201Z,21.07
2017-12-26T03:32:34.130Z,20.03
2017-12-26T03:47:37.120Z,21.67
2017-12-26T04:02:34.714Z,22.87
2017-12-26T04:17:36.995Z,24.97
2017-12-26T04:32:34.568Z,23.93
2017-12-26T04:47:34.371Z,24.83
2017-12-26T05:02:34.914Z,24.20
2017-12-26T05:17:34.820Z,24.27
2017-12-26T05:32:34.613Z,29.30
2017-12-26T05:47:34.537Z,31.47
2017-12-26T06:02:34.171Z,28.97
2017-12-26T06:17:33.880Z,28.43
2017-12-26T06:32:35.011Z,26.33
2017-12-26T06:47:36.452Z,29.17
2017-12-26T07:02:33.674Z,24.40
2017-12-26T07:17:34.230Z,25.00
2017-12-26T07:32:34.165Z,29.93
2017-12-26T07:47:34.217Z,43.67
2017-12-26T08:02:34.526Z,48.37
2017-12-26T08:17:34.498Z,49.10
2017-12-26T08:32:34.248Z,53.17
2017-12-26T08:47:34.167Z,55.87
2017-12-26T09:02:36.566Z,54.00
2017-12-26T09:17:34.503Z,52.23
2017-12-26T09:32:34.442Z,47.60
2017-12-26T09:47:35.170Z,46.10
2017-12-26T10:02:33.868Z,52.17
2017-12-26T10:17:34.279Z,86.23
2017-12-26T10:32:34.933Z,100.67
2017-12-26T10:47:35.373Z,119.57
2017-12-26T11:02:36.109Z,83.30
2017-12-26T11:17:35.209Z,54.97
2017-12-26T11:32:34.075Z,35.10
2017-12-26T11:47:34.576Z,34.17
2017-12-26T12:02:34.731Z,36.47
2017-12-26T12:17:34.170Z,36.20
2017-12-26T12:32:37.164Z,26.80
2017-12-26T12:47:36.534Z,28.00
2017-12-26T13:02:34.562Z,24.83
2017-12-26T13:17:34.417Z,31.00
2017-12-26T13:32:34.384Z,30.23
2017-12-26T13:47:34.794Z,27.47
2017-12-26T14:02:36.725Z,29.13
2017-12-26T14:17:34.752Z,24.80
2017-12-26T14:32:34.590Z,28.37
2017-12-26T14:47:35.054Z,25.90
2017-12-26T15:02:37.027Z,26.17
2017-12-26T15:17:35.958Z,36.73
2017-12-26T15:32:34.920Z,36.40
2017-12-26T15:47:34.224Z,36.60
2017-12-26T16:02:36.354Z,40.00
2017-12-26T16:17:37.139Z,41.57
2017-12-26T16:32:37.087Z,51.17
2017-12-26T16:47:34.478Z,40.17
2017-12-26T17:02:34.639Z,40.73
2017-12-26T17:17:36.330Z,46.97
2017-12-26T17:32:36.314Z,46.53
2017-12-26T17:47:33.511Z,65.47
2017-12-26T18:02:34.638Z,57.00
2017-12-26T18:17:34.602Z,56.53
2017-12-26T18:32:34.350Z,61.57
2017-12-26T18:47:33.809Z,70.40
2017-12-26T19:02:34.165Z,68.50
2017-12-26T19:17:33.886Z,74.00
2017-12-26T19:32:34.110Z,60.07
2017-12-26T19:47:34.230Z,52.60
2017-12-26T20:02:34.409Z,42.90
2017-12-26T20:17:34.548Z,42.43
2017-12-26T20:32:34.084Z,56.90
2017-12-26T20:47:33.786Z,79.20
2017-12-26T21:02:33.930Z,65.20
2017-12-26T21:17:33.568Z,45.87
2017-12-26T21:32:33.599Z,60.13
2017-12-26T21:47:34.873Z,47.93
2017-12-26T22:02:34.842Z,48.30
2017-12-26T22:17:34.574Z,38.50
2017-12-26T22:32:34.738Z,40.07
2017-12-26T22:47:35.084Z,36.33
2017-12-26T23:02:35.025Z,34.43
2017-12-26T23:17:40.940Z,37.50
2017-12-26T23:32:40.486Z,36.20
2017-12-26T23:47:39.106Z,33.20
